Canonbie, United Kingdom
Current Conditions -  °F | °C
As of 1:50 PM on Sunday 21 Dec 2014 (Local Time) from EGOM Reporting Station
Drizzle Drizzle  
Wind Chill:   Ceiling: NA
Heat Index:   Visibility: 1mi
Dew Point:   Wind: 33mph
Humidity: 100%   Direction: 250°WSW
Pressure: 29.83"   Gusts: 47mph
Location:  55.08°N, 2.94°W
Report Text: EGOM 211350Z AUTO 25029G41KT 1700 -DZ ///////// 08/08 Q1010
Loading
Personal Weather Stations






























Interactive Weather Map New forecast layout! Learn more

10-Day Weather Forecast

Advertisements
Track Severe Weather on mobile